createdAt,value
2022-10-22T00:00:13.802Z,16.32
2022-10-22T00:00:25.676Z,16.31
2022-10-22T00:00:37.534Z,16.32
2022-10-22T00:00:49.525Z,16.30
2022-10-22T00:01:01.461Z,16.32
2022-10-22T00:01:13.461Z,16.33
2022-10-22T00:01:25.453Z,16.33
2022-10-22T00:01:38.843Z,16.31
2022-10-22T00:01:50.730Z,16.30
2022-10-22T00:02:04.168Z,16.30
2022-10-22T00:02:19.749Z,16.27
2022-10-22T00:02:31.835Z,16.25
2022-10-22T00:02:44.642Z,16.25
2022-10-22T00:02:56.595Z,16.22
2022-10-22T00:03:08.555Z,16.23
2022-10-22T00:03:20.492Z,16.22
2022-10-22T00:03:32.448Z,16.23
2022-10-22T00:03:44.299Z,16.24
2022-10-22T00:03:56.173Z,16.26
2022-10-22T00:04:08.060Z,16.26
2022-10-22T00:04:19.974Z,16.24
2022-10-22T00:04:34.590Z,16.26
2022-10-22T00:04:48.343Z,16.29
2022-10-22T00:05:00.277Z,16.31
2022-10-22T00:05:12.304Z,16.35
2022-10-22T00:05:24.263Z,16.37
2022-10-22T00:05:36.720Z,16.40
2022-10-22T00:05:48.652Z,16.40
2022-10-22T00:06:00.636Z,16.43
2022-10-22T00:06:12.565Z,16.44
2022-10-22T00:06:24.443Z,16.46
2022-10-22T00:06:36.306Z,16.47
2022-10-22T00:06:48.196Z,16.49
2022-10-22T00:07:00.091Z,16.48
2022-10-22T00:07:11.968Z,16.47
2022-10-22T00:07:24.372Z,16.46
2022-10-22T00:07:36.550Z,16.47
2022-10-22T00:07:48.463Z,16.45
2022-10-22T00:08:00.379Z,16.46
2022-10-22T00:08:12.308Z,16.40
2022-10-22T00:08:24.196Z,16.39
2022-10-22T00:08:36.133Z,16.30
2022-10-22T00:08:48.095Z,16.28
2022-10-22T00:09:00.517Z,16.27
2022-10-22T00:09:13.481Z,16.24
2022-10-22T00:09:25.934Z,16.18
2022-10-22T00:09:37.820Z,16.16
2022-10-22T00:09:49.941Z,16.17
2022-10-22T00:10:02.085Z,16.08
2022-10-22T00:10:14.249Z,16.09
2022-10-22T00:10:26.133Z,16.03
2022-10-22T00:10:38.769Z,15.93
2022-10-22T00:10:50.768Z,15.96
2022-10-22T00:11:11.163Z,15.93
2022-10-22T00:11:23.082Z,15.93
2022-10-22T00:11:34.973Z,15.95
2022-10-22T00:11:46.906Z,15.95
2022-10-22T00:11:58.904Z,16.01
2022-10-22T00:12:11.708Z,15.97
2022-10-22T00:12:24.400Z,15.97
2022-10-22T00:12:36.311Z,15.95
2022-10-22T00:12:48.213Z,15.92
2022-10-22T00:13:00.485Z,15.93
2022-10-22T00:13:12.706Z,15.95
2022-10-22T00:13:24.835Z,15.91
2022-10-22T00:13:36.799Z,15.90
2022-10-22T00:13:49.061Z,15.94
2022-10-22T00:14:00.977Z,15.94
2022-10-22T00:14:13.079Z,15.97
2022-10-22T00:14:24.970Z,15.95
2022-10-22T00:14:37.410Z,15.98
2022-10-22T00:14:49.476Z,15.96
2022-10-22T00:15:01.520Z,15.98
2022-10-22T00:15:13.410Z,15.97
2022-10-22T00:15:25.528Z,15.97
2022-10-22T00:15:37.500Z,16.01
2022-10-22T00:15:49.406Z,16.04
2022-10-22T00:16:02.472Z,16.05
2022-10-22T00:16:14.711Z,16.07
2022-10-22T00:16:26.674Z,16.08
2022-10-22T00:16:38.571Z,16.11
2022-10-22T00:16:50.494Z,16.11
2022-10-22T00:17:02.702Z,16.13
2022-10-22T00:17:14.708Z,16.15
2022-10-22T00:17:26.612Z,16.18
2022-10-22T00:17:38.970Z,16.21
2022-10-22T00:17:51.279Z,16.23
2022-10-22T00:18:03.595Z,16.23
2022-10-22T00:18:15.716Z,16.26
2022-10-22T00:18:27.618Z,16.26
2022-10-22T00:18:40.057Z,16.28
2022-10-22T00:18:51.931Z,16.29
2022-10-22T00:19:03.846Z,16.30
2022-10-22T00:19:15.990Z,16.33
2022-10-22T00:19:28.456Z,16.34
2022-10-22T00:19:40.951Z,16.36
2022-10-22T00:19:52.826Z,16.35
2022-10-22T00:20:05.693Z,16.37
2022-10-22T00:20:17.638Z,16.39
2022-10-22T00:20:29.547Z,16.40
2022-10-22T00:20:41.823Z,16.40
2022-10-22T00:20:53.697Z,16.41
2022-10-22T00:21:06.489Z,16.40
2022-10-22T00:21:18.454Z,16.38
2022-10-22T00:21:30.699Z,16.38
2022-10-22T00:21:42.563Z,16.36
2022-10-22T00:21:54.525Z,16.31
2022-10-22T00:22:07.736Z,16.35
2022-10-22T00:22:19.642Z,16.35
2022-10-22T00:22:31.551Z,16.34
2022-10-22T00:22:43.515Z,16.34
2022-10-22T00:22:55.532Z,16.33
2022-10-22T00:23:07.613Z,16.32
2022-10-22T00:23:19.472Z,16.32
2022-10-22T00:23:31.852Z,16.33
2022-10-22T00:23:43.901Z,16.36
2022-10-22T00:23:55.997Z,16.37
2022-10-22T00:24:08.128Z,16.38
2022-10-22T00:24:20.429Z,16.38
2022-10-22T00:24:33.482Z,16.40
2022-10-22T00:24:45.344Z,16.41
2022-10-22T00:24:57.207Z,16.40
2022-10-22T00:25:09.137Z,16.41
2022-10-22T00:25:21.069Z,16.41
2022-10-22T00:25:35.959Z,16.41
2022-10-22T00:25:48.082Z,16.43
2022-10-22T00:26:00.305Z,16.42
2022-10-22T00:26:13.095Z,16.42
2022-10-22T00:26:24.976Z,16.41
2022-10-22T00:26:36.874Z,16.43
2022-10-22T00:26:49.198Z,16.44
2022-10-22T00:27:01.457Z,16.43
2022-10-22T00:27:13.948Z,16.42
2022-10-22T00:27:25.819Z,16.41
2022-10-22T00:27:37.746Z,16.42
2022-10-22T00:27:49.793Z,16.44
2022-10-22T00:28:02.528Z,16.43
2022-10-22T00:28:14.929Z,16.44
2022-10-22T00:28:26.935Z,16.44
2022-10-22T00:28:39.083Z,16.45
2022-10-22T00:28:50.934Z,16.46
2022-10-22T00:29:02.837Z,16.46
2022-10-22T00:29:14.705Z,16.47
2022-10-22T00:29:26.608Z,16.47
2022-10-22T00:29:38.832Z,16.48
2022-10-22T00:29:50.758Z,16.48
2022-10-22T00:30:02.860Z,16.48
2022-10-22T00:30:15.079Z,16.48
2022-10-22T00:30:26.981Z,16.49
2022-10-22T00:30:38.886Z,16.50
2022-10-22T00:30:58.127Z,16.50
2022-10-22T00:31:10.172Z,16.49
2022-10-22T00:31:22.099Z,16.50
2022-10-22T00:31:34.073Z,16.50
2022-10-22T00:31:49.701Z,16.49
2022-10-22T00:32:02.739Z,16.49
2022-10-22T00:32:15.334Z,16.50
2022-10-22T00:32:27.283Z,16.50
2022-10-22T00:32:39.363Z,16.51
2022-10-22T00:32:51.486Z,16.51
2022-10-22T00:33:03.416Z,16.50
2022-10-22T00:33:15.346Z,16.50
2022-10-22T00:33:28.851Z,16.51
2022-10-22T00:33:41.183Z,16.51
2022-10-22T00:33:53.050Z,16.50
2022-10-22T00:34:05.197Z,16.51
2022-10-22T00:34:22.208Z,16.51
2022-10-22T00:34:34.354Z,16.51
2022-10-22T00:34:46.216Z,16.51
2022-10-22T00:34:58.504Z,16.51
2022-10-22T00:35:10.376Z,16.52
2022-10-22T00:35:22.264Z,16.52
2022-10-22T00:35:34.168Z,16.51
2022-10-22T00:35:47.619Z,16.53
2022-10-22T00:35:59.490Z,16.53
2022-10-22T00:36:11.447Z,16.53
2022-10-22T00:36:23.342Z,16.54
2022-10-22T00:36:35.210Z,16.53
2022-10-22T00:36:48.206Z,16.53
2022-10-22T00:37:00.101Z,16.53
2022-10-22T00:37:11.960Z,16.52
2022-10-22T00:37:23.892Z,16.53
2022-10-22T00:37:35.815Z,16.52
2022-10-22T00:37:47.703Z,16.51
2022-10-22T00:37:59.564Z,16.51
2022-10-22T00:38:11.490Z,16.51
2022-10-22T00:38:23.845Z,16.51
2022-10-22T00:38:35.758Z,16.43
2022-10-22T00:38:47.678Z,16.47
2022-10-22T00:38:59.539Z,16.47
2022-10-22T00:39:13.018Z,16.48
2022-10-22T00:39:26.913Z,16.50
2022-10-22T00:39:38.784Z,16.50
2022-10-22T00:39:50.670Z,16.50
2022-10-22T00:40:04.164Z,16.47
2022-10-22T00:40:16.098Z,16.48
2022-10-22T00:40:28.318Z,16.49
2022-10-22T00:40:40.197Z,16.48
2022-10-22T00:40:52.108Z,16.48
2022-10-22T00:41:04.327Z,16.47
2022-10-22T00:41:16.751Z,16.44
2022-10-22T00:41:28.694Z,16.41
2022-10-22T00:41:40.555Z,16.42
2022-10-22T00:41:53.820Z,16.41
2022-10-22T00:42:05.806Z,16.44
2022-10-22T00:42:23.294Z,16.44
2022-10-22T00:42:35.276Z,16.45
2022-10-22T00:42:47.163Z,16.47
2022-10-22T00:42:59.391Z,16.46
2022-10-22T00:43:16.507Z,16.47
2022-10-22T00:43:28.380Z,16.48
2022-10-22T00:44:00.633Z,16.51
2022-10-22T00:44:49.756Z,16.51
2022-10-22T00:45:07.649Z,16.49
2022-10-22T00:45:22.977Z,16.49
2022-10-22T00:45:34.863Z,16.46
2022-10-22T00:45:47.044Z,16.43
2022-10-22T00:45:59.389Z,16.44
2022-10-22T00:46:11.251Z,16.42
2022-10-22T00:46:23.189Z,16.41
2022-10-22T00:46:35.086Z,16.39
2022-10-22T00:46:46.979Z,16.40
2022-10-22T00:46:59.173Z,16.38
2022-10-22T00:47:11.099Z,16.36
2022-10-22T00:47:25.169Z,16.34
2022-10-22T00:48:01.537Z,16.33
2022-10-22T00:48:19.825Z,16.32
2022-10-22T00:48:35.838Z,16.32
2022-10-22T00:48:47.819Z,16.32
2022-10-22T00:49:03.773Z,16.30
2022-10-22T00:49:15.720Z,16.28
2022-10-22T00:49:27.630Z,16.28
2022-10-22T00:49:39.934Z,16.20
2022-10-22T00:49:54.158Z,16.15
2022-10-22T00:50:11.327Z,16.16
2022-10-22T00:50:38.172Z,16.17
2022-10-22T00:50:59.005Z,16.21
2022-10-22T00:51:11.034Z,16.15
2022-10-22T00:51:27.172Z,16.13
2022-10-22T00:51:39.061Z,16.11
2022-10-22T00:51:51.020Z,16.06
2022-10-22T00:52:02.929Z,16.03
2022-10-22T00:52:14.898Z,15.98
2022-10-22T00:52:27.230Z,15.95
2022-10-22T00:52:40.208Z,15.82
2022-10-22T00:52:52.935Z,15.78
2022-10-22T00:53:10.348Z,15.79
2022-10-22T00:53:28.340Z,15.81
2022-10-22T00:53:47.561Z,15.82
2022-10-22T00:54:06.599Z,15.87
2022-10-22T00:54:18.499Z,15.90
2022-10-22T00:54:30.519Z,15.92
2022-10-22T00:54:42.976Z,15.97
2022-10-22T00:54:55.089Z,15.92
2022-10-22T00:55:07.504Z,15.86
2022-10-22T00:55:21.259Z,15.84
2022-10-22T00:55:34.050Z,15.84
2022-10-22T00:55:49.000Z,15.82
2022-10-22T00:56:01.161Z,15.84
2022-10-22T00:56:13.801Z,15.83
2022-10-22T00:56:25.961Z,15.85
2022-10-22T00:56:38.227Z,15.88
2022-10-22T00:56:50.239Z,15.90
2022-10-22T00:57:02.120Z,15.94
2022-10-22T00:57:15.603Z,15.98
2022-10-22T00:57:28.032Z,16.01
2022-10-22T00:57:40.842Z,16.03
2022-10-22T00:57:55.633Z,16.05
2022-10-22T00:58:07.689Z,16.08
2022-10-22T00:58:24.520Z,16.11
2022-10-22T00:58:41.442Z,16.13
2022-10-22T00:58:56.990Z,16.14
2022-10-22T00:59:10.333Z,16.11
2022-10-22T00:59:22.296Z,16.10
2022-10-22T00:59:34.446Z,16.12
2022-10-22T00:59:47.247Z,16.10
2022-10-22T00:59:59.356Z,16.11
2022-10-22T01:00:11.871Z,16.10
2022-10-22T01:00:24.593Z,16.12
2022-10-22T01:00:36.559Z,16.09
2022-10-22T01:00:48.802Z,16.03
2022-10-22T01:01:00.974Z,16.03
2022-10-22T01:01:17.850Z,16.05
2022-10-22T01:01:31.817Z,16.08
2022-10-22T01:01:45.134Z,16.10
2022-10-22T01:01:57.280Z,16.09
2022-10-22T01:02:09.184Z,16.11
2022-10-22T01:02:21.243Z,16.14
2022-10-22T01:02:33.306Z,16.16
2022-10-22T01:02:45.366Z,16.18
2022-10-22T01:02:58.298Z,16.20
2022-10-22T01:03:10.841Z,16.20
2022-10-22T01:03:22.735Z,16.19
2022-10-22T01:03:34.648Z,16.20
2022-10-22T01:03:47.023Z,16.22
2022-10-22T01:04:00.019Z,16.22
2022-10-22T01:04:11.994Z,16.21
2022-10-22T01:04:24.141Z,16.22
2022-10-22T01:04:36.113Z,16.25
2022-10-22T01:04:48.245Z,16.27
2022-10-22T01:05:00.203Z,16.28
2022-10-22T01:05:12.123Z,16.30
2022-10-22T01:05:27.789Z,16.31
2022-10-22T01:05:44.135Z,16.32
2022-10-22T01:06:03.230Z,16.33
2022-10-22T01:06:23.610Z,16.35
2022-10-22T01:06:35.479Z,16.35
2022-10-22T01:06:47.774Z,16.36
2022-10-22T01:06:59.684Z,16.35
2022-10-22T01:07:21.112Z,16.34
2022-10-22T01:07:40.901Z,16.35
2022-10-22T01:07:53.974Z,16.33
2022-10-22T01:08:13.857Z,16.27
2022-10-22T01:08:37.281Z,16.14
2022-10-22T01:09:16.850Z,16.01
2022-10-22T01:09:47.066Z,16.08
2022-10-22T01:10:22.995Z,16.12
2022-10-22T01:10:37.460Z,16.09
2022-10-22T01:11:04.023Z,16.08
2022-10-22T01:11:29.948Z,16.10
2022-10-22T01:12:01.307Z,16.14
2022-10-22T01:12:33.880Z,16.16
2022-10-22T01:13:06.933Z,16.21
2022-10-22T01:13:47.545Z,16.23
2022-10-22T01:14:14.498Z,16.19
2022-10-22T01:14:36.176Z,16.20
2022-10-22T01:15:02.919Z,16.19
2022-10-22T01:15:23.812Z,16.21
2022-10-22T01:16:10.998Z,16.20
2022-10-22T01:16:22.864Z,16.18
2022-10-22T01:16:48.619Z,16.17
2022-10-22T01:17:00.493Z,16.16
2022-10-22T01:17:31.493Z,16.17
2022-10-22T01:18:18.031Z,16.18
2022-10-22T01:18:58.442Z,16.18
2022-10-22T01:19:31.281Z,16.19
2022-10-22T01:20:02.984Z,16.22
2022-10-22T01:20:36.324Z,16.23
2022-10-22T01:20:57.037Z,16.23
2022-10-22T01:21:32.861Z,16.24
2022-10-22T01:21:52.203Z,16.26
2022-10-22T01:22:40.220Z,16.26
2022-10-22T01:23:16.575Z,16.26
2022-10-22T01:23:43.325Z,16.29
2022-10-22T01:23:57.990Z,16.29
2022-10-22T01:24:09.800Z,16.31
2022-10-22T01:24:43.407Z,16.32
2022-10-22T01:25:12.587Z,16.33
2022-10-22T01:25:45.570Z,16.34
2022-10-22T01:26:06.407Z,16.32
2022-10-22T01:26:43.189Z,16.28
2022-10-22T01:27:10.061Z,16.28
2022-10-22T01:27:53.051Z,16.21
2022-10-22T01:28:49.913Z,16.12
2022-10-22T01:29:13.521Z,16.12
2022-10-22T01:29:34.819Z,16.14
2022-10-22T01:30:01.912Z,16.13
2022-10-22T01:30:15.837Z,16.15
2022-10-22T01:30:27.821Z,16.16
2022-10-22T01:30:41.302Z,16.15
2022-10-22T01:30:55.710Z,16.15
2022-10-22T01:31:08.937Z,16.15
2022-10-22T01:31:23.547Z,16.13
2022-10-22T01:31:44.312Z,16.13
2022-10-22T01:32:10.104Z,16.15
2022-10-22T01:32:27.723Z,16.14
2022-10-22T01:32:46.123Z,16.15
2022-10-22T01:33:06.482Z,16.17
2022-10-22T01:33:21.682Z,16.18
2022-10-22T01:33:34.288Z,16.19
2022-10-22T01:33:49.009Z,16.18
2022-10-22T01:34:02.639Z,16.18
2022-10-22T01:34:18.163Z,16.19
2022-10-22T01:34:31.748Z,16.18
2022-10-22T01:34:48.584Z,16.17
2022-10-22T01:35:05.586Z,16.15
2022-10-22T01:35:27.142Z,16.14
2022-10-22T01:35:42.809Z,16.15
2022-10-22T01:35:55.035Z,16.16
2022-10-22T01:36:08.180Z,16.16
2022-10-22T01:36:21.602Z,16.17
2022-10-22T01:36:35.894Z,16.19
2022-10-22T01:36:48.304Z,16.18
2022-10-22T01:37:01.361Z,16.20
2022-10-22T01:37:15.469Z,16.21
2022-10-22T01:37:31.260Z,16.22
2022-10-22T01:37:48.488Z,16.23
2022-10-22T01:38:04.922Z,16.25
2022-10-22T01:38:20.328Z,16.26
2022-10-22T01:38:33.718Z,16.24
2022-10-22T01:38:46.962Z,16.26
2022-10-22T01:39:01.900Z,16.23
2022-10-22T01:39:16.214Z,16.21
2022-10-22T01:39:30.900Z,16.17
2022-10-22T01:39:46.530Z,16.15
2022-10-22T01:40:00.803Z,16.13
2022-10-22T01:40:15.841Z,16.14
2022-10-22T01:40:29.105Z,16.13
2022-10-22T01:40:42.649Z,16.13
2022-10-22T01:40:55.488Z,16.12
2022-10-22T01:41:08.451Z,16.11
2022-10-22T01:41:20.679Z,16.13
2022-10-22T01:41:34.331Z,16.13
2022-10-22T01:41:46.394Z,16.13
2022-10-22T01:41:58.403Z,16.12
2022-10-22T01:42:12.591Z,16.11
2022-10-22T01:42:24.539Z,16.12
2022-10-22T01:42:36.395Z,16.11
2022-10-22T01:42:59.476Z,16.14
2022-10-22T01:43:11.556Z,16.14
2022-10-22T01:43:23.512Z,16.14
2022-10-22T01:43:35.414Z,16.15
2022-10-22T01:43:47.374Z,16.16
2022-10-22T01:43:59.423Z,16.16
2022-10-22T01:44:32.496Z,16.18
2022-10-22T01:44:44.535Z,16.18
2022-10-22T01:44:56.466Z,16.18
2022-10-22T01:45:13.188Z,16.20
2022-10-22T01:45:25.210Z,16.21
2022-10-22T01:45:42.106Z,16.23
2022-10-22T01:46:02.279Z,16.24
2022-10-22T01:46:16.755Z,16.21
2022-10-22T01:46:29.515Z,16.17
2022-10-22T01:46:41.633Z,16.17
2022-10-22T01:47:03.302Z,16.16
2022-10-22T01:47:34.082Z,16.11
2022-10-22T01:48:12.039Z,16.09
2022-10-22T01:48:36.015Z,16.06
2022-10-22T01:49:07.107Z,16.06
2022-10-22T01:49:39.013Z,16.08
2022-10-22T01:50:17.959Z,16.13
2022-10-22T01:50:35.854Z,16.14
2022-10-22T01:51:24.211Z,16.15
2022-10-22T01:52:05.632Z,16.17
2022-10-22T01:53:02.134Z,16.21
2022-10-22T01:53:18.850Z,16.25
2022-10-22T01:53:48.196Z,16.25
2022-10-22T01:54:02.542Z,16.25
2022-10-22T01:54:40.150Z,16.23
2022-10-22T01:55:03.186Z,16.23
2022-10-22T01:55:36.128Z,16.22
2022-10-22T01:56:17.203Z,16.22
2022-10-22T01:56:47.299Z,16.21
2022-10-22T01:57:05.377Z,16.19
2022-10-22T01:57:28.276Z,16.20
2022-10-22T01:57:54.587Z,16.18
2022-10-22T01:58:25.618Z,16.14
2022-10-22T01:58:37.446Z,16.15
2022-10-22T01:59:10.108Z,16.13
2022-10-22T01:59:35.088Z,16.01
2022-10-22T02:00:08.105Z,15.98
2022-10-22T02:00:21.177Z,15.95
2022-10-22T02:00:38.413Z,15.95
2022-10-22T02:01:07.814Z,15.91
2022-10-22T02:01:36.200Z,15.94
2022-10-22T02:02:00.131Z,15.94
2022-10-22T02:02:36.197Z,15.97
2022-10-22T02:03:13.731Z,15.95
2022-10-22T02:03:37.404Z,15.95
2022-10-22T02:04:00.571Z,15.98
2022-10-22T02:04:25.361Z,15.98
2022-10-22T02:05:00.047Z,15.97
2022-10-22T02:05:22.955Z,15.95
2022-10-22T02:05:45.976Z,15.92
2022-10-22T02:06:04.559Z,15.93
2022-10-22T02:06:20.993Z,15.94
2022-10-22T02:06:35.133Z,15.92
2022-10-22T02:06:51.302Z,15.89
2022-10-22T02:07:06.310Z,15.87
2022-10-22T02:07:22.857Z,15.88
2022-10-22T02:07:40.445Z,15.88
2022-10-22T02:08:01.180Z,15.85
2022-10-22T02:08:18.070Z,15.78
2022-10-22T02:08:33.772Z,15.77
2022-10-22T02:08:48.677Z,15.74
2022-10-22T02:09:02.468Z,15.76
2022-10-22T02:09:17.836Z,15.74
2022-10-22T02:09:31.849Z,15.78
2022-10-22T02:09:45.649Z,15.80
2022-10-22T02:09:59.543Z,15.83
2022-10-22T02:10:12.403Z,15.81
2022-10-22T02:10:25.107Z,15.83
2022-10-22T02:10:42.044Z,15.83
2022-10-22T02:10:54.898Z,15.85
2022-10-22T02:11:07.264Z,15.87
2022-10-22T02:11:19.253Z,15.86
2022-10-22T02:11:31.565Z,15.88
2022-10-22T02:11:44.654Z,15.90
2022-10-22T02:12:00.476Z,15.92
2022-10-22T02:12:14.138Z,15.93
2022-10-22T02:12:29.168Z,15.93
2022-10-22T02:12:44.149Z,15.94
2022-10-22T02:12:58.452Z,15.93
2022-10-22T02:13:15.675Z,15.90
2022-10-22T02:13:33.457Z,15.92
2022-10-22T02:13:52.909Z,15.95
2022-10-22T02:14:05.367Z,15.96
2022-10-22T02:14:19.156Z,15.98
2022-10-22T02:14:32.287Z,16.00
2022-10-22T02:14:45.936Z,16.01
2022-10-22T02:15:00.556Z,16.01
2022-10-22T02:15:14.440Z,16.00
2022-10-22T02:15:29.424Z,16.01
2022-10-22T02:15:45.977Z,15.98
2022-10-22T02:15:59.999Z,15.98
2022-10-22T02:16:16.260Z,15.98
2022-10-22T02:16:36.692Z,16.00
2022-10-22T02:16:50.053Z,16.02
2022-10-22T02:17:02.454Z,16.04
2022-10-22T02:17:18.172Z,16.03
2022-10-22T02:17:34.276Z,16.02
2022-10-22T02:17:47.715Z,16.01
2022-10-22T02:18:01.210Z,16.03
2022-10-22T02:18:14.750Z,16.03
2022-10-22T02:18:30.818Z,16.05
2022-10-22T02:18:46.538Z,16.07
2022-10-22T02:19:01.815Z,16.10
2022-10-22T02:19:28.022Z,16.11
2022-10-22T02:19:43.097Z,16.09
2022-10-22T02:19:58.698Z,16.10
2022-10-22T02:20:17.331Z,16.04
2022-10-22T02:20:32.953Z,16.05
2022-10-22T02:20:44.939Z,16.05
2022-10-22T02:20:57.881Z,16.04
2022-10-22T02:21:09.966Z,16.02
2022-10-22T02:21:22.001Z,16.01
2022-10-22T02:21:33.953Z,15.97
2022-10-22T02:21:46.039Z,16.01
2022-10-22T02:21:58.620Z,16.01
2022-10-22T02:22:10.532Z,16.01
2022-10-22T02:22:23.725Z,16.04
2022-10-22T02:22:37.119Z,16.05
2022-10-22T02:22:49.845Z,16.04
2022-10-22T02:23:02.428Z,16.02
2022-10-22T02:23:14.867Z,16.02
2022-10-22T02:23:27.557Z,16.02
2022-10-22T02:23:39.545Z,16.01
2022-10-22T02:23:51.607Z,16.02
2022-10-22T02:24:03.911Z,16.03
2022-10-22T02:24:16.960Z,16.03
2022-10-22T02:24:29.408Z,16.03
2022-10-22T02:24:41.719Z,16.02
2022-10-22T02:24:54.250Z,16.02
2022-10-22T02:25:07.028Z,15.99
2022-10-22T02:25:22.071Z,16.00
2022-10-22T02:25:36.761Z,16.02
2022-10-22T02:25:55.651Z,16.01
2022-10-22T02:26:15.229Z,16.01
2022-10-22T02:26:35.655Z,15.98
2022-10-22T02:27:08.425Z,15.95
2022-10-22T02:27:32.543Z,15.90
2022-10-22T02:27:51.260Z,15.90
2022-10-22T02:28:47.902Z,15.88
2022-10-22T02:29:11.326Z,15.86
2022-10-22T02:29:30.367Z,15.86
2022-10-22T02:29:50.903Z,15.86
2022-10-22T02:30:09.927Z,15.87
2022-10-22T02:30:23.107Z,15.89
2022-10-22T02:30:37.229Z,15.88
2022-10-22T02:30:54.862Z,15.87
2022-10-22T02:31:16.857Z,15.90
2022-10-22T02:31:32.664Z,15.91
2022-10-22T02:31:49.610Z,15.91
2022-10-22T02:32:04.380Z,15.90
2022-10-22T02:32:20.695Z,15.90
2022-10-22T02:32:42.746Z,15.90
2022-10-22T02:33:29.266Z,15.90
2022-10-22T02:33:47.216Z,15.91
2022-10-22T02:34:05.051Z,15.93
2022-10-22T02:34:21.776Z,15.92
2022-10-22T02:34:33.810Z,15.91
2022-10-22T02:34:47.404Z,15.92
2022-10-22T02:35:01.179Z,15.92
2022-10-22T02:35:16.861Z,15.90
2022-10-22T02:35:30.235Z,15.91
2022-10-22T02:35:43.137Z,15.91
2022-10-22T02:35:56.067Z,15.90
2022-10-22T02:36:08.897Z,15.89
2022-10-22T02:36:22.630Z,15.88
2022-10-22T02:36:35.075Z,15.91
2022-10-22T02:36:50.369Z,15.91
2022-10-22T02:37:04.463Z,15.89
2022-10-22T02:37:17.210Z,15.89
2022-10-22T02:37:29.511Z,15.88
2022-10-22T02:37:42.276Z,15.85
2022-10-22T02:37:56.089Z,15.84
2022-10-22T02:38:09.293Z,15.86
2022-10-22T02:38:23.901Z,15.85
2022-10-22T02:38:36.822Z,15.87
2022-10-22T02:38:51.306Z,15.88
2022-10-22T02:39:04.217Z,15.88
2022-10-22T02:39:39.085Z,15.89
2022-10-22T02:39:52.437Z,15.87
2022-10-22T02:40:04.715Z,15.84
2022-10-22T02:40:17.358Z,15.84
2022-10-22T02:40:31.144Z,15.83
2022-10-22T02:40:43.018Z,15.81
2022-10-22T02:40:55.459Z,15.79
2022-10-22T02:41:07.528Z,15.78
2022-10-22T02:41:20.224Z,15.79
2022-10-22T02:41:32.592Z,15.80
2022-10-22T02:41:44.545Z,15.82
2022-10-22T02:41:57.917Z,15.81
2022-10-22T02:42:12.050Z,15.83
2022-10-22T02:42:26.190Z,15.83
2022-10-22T02:42:39.756Z,15.83
2022-10-22T02:42:52.992Z,15.83
2022-10-22T02:43:06.038Z,15.83
2022-10-22T02:43:18.686Z,15.82
2022-10-22T02:43:30.606Z,15.83
2022-10-22T02:43:44.780Z,15.84
2022-10-22T02:43:56.801Z,15.85
2022-10-22T02:44:10.425Z,15.87
2022-10-22T02:44:22.580Z,15.87
2022-10-22T02:44:34.524Z,15.88
2022-10-22T02:44:46.396Z,15.89
2022-10-22T02:44:58.418Z,15.90
2022-10-22T02:45:10.722Z,15.90
2022-10-22T02:45:22.944Z,15.90
2022-10-22T02:45:35.428Z,15.89
2022-10-22T02:45:47.345Z,15.90
2022-10-22T02:45:59.670Z,15.91
2022-10-22T02:46:12.029Z,15.90
2022-10-22T02:46:25.621Z,15.91
2022-10-22T02:46:39.347Z,15.92
2022-10-22T02:46:51.254Z,15.92
2022-10-22T02:47:03.341Z,15.92
2022-10-22T02:47:15.224Z,15.95
2022-10-22T02:47:27.104Z,15.95
2022-10-22T02:47:38.969Z,15.96
2022-10-22T02:47:50.952Z,15.95
2022-10-22T02:48:03.441Z,15.96
2022-10-22T02:48:15.336Z,15.96
2022-10-22T02:48:27.252Z,15.97
2022-10-22T02:48:39.125Z,15.97
2022-10-22T02:48:51.339Z,15.97
2022-10-22T02:49:03.401Z,15.98
2022-10-22T02:49:15.281Z,15.96
2022-10-22T02:49:27.347Z,15.95
2022-10-22T02:49:39.238Z,15.96
2022-10-22T02:49:51.235Z,15.95
2022-10-22T02:50:05.480Z,15.98
2022-10-22T02:50:19.882Z,15.99
2022-10-22T02:50:31.981Z,15.99
2022-10-22T02:50:43.842Z,15.98
2022-10-22T02:50:55.720Z,15.99
2022-10-22T02:51:07.620Z,15.97
2022-10-22T02:51:19.536Z,15.97
2022-10-22T02:51:31.458Z,15.99
2022-10-22T02:51:43.347Z,15.98
2022-10-22T02:51:55.292Z,16.00
2022-10-22T02:52:07.175Z,16.00
2022-10-22T02:52:19.052Z,16.00
2022-10-22T02:52:30.937Z,16.01
2022-10-22T02:52:43.306Z,15.97
2022-10-22T02:52:55.392Z,15.96
2022-10-22T02:53:07.450Z,15.94
2022-10-22T02:53:19.312Z,15.96
2022-10-22T02:53:31.273Z,15.95
2022-10-22T02:53:43.157Z,15.96
2022-10-22T02:53:55.032Z,15.97
2022-10-22T02:54:07.094Z,15.97
2022-10-22T02:54:18.973Z,15.97
2022-10-22T02:54:30.866Z,15.98
2022-10-22T02:54:42.844Z,16.00
2022-10-22T02:54:54.705Z,15.98
2022-10-22T02:55:07.767Z,15.97
2022-10-22T02:55:19.693Z,15.96
2022-10-22T02:55:31.567Z,15.96
2022-10-22T02:55:43.440Z,15.98
2022-10-22T02:55:55.294Z,15.98
2022-10-22T02:56:07.591Z,15.97
2022-10-22T02:56:19.457Z,16.00
2022-10-22T02:56:31.453Z,15.98
2022-10-22T02:56:43.353Z,15.94
2022-10-22T02:56:55.297Z,15.91
2022-10-22T02:57:07.288Z,15.90
2022-10-22T02:57:36.090Z,15.89
2022-10-22T02:57:47.949Z,15.89
2022-10-22T02:57:59.816Z,15.88
2022-10-22T02:58:13.863Z,15.88
2022-10-22T02:58:25.845Z,15.88
2022-10-22T02:58:37.722Z,15.89
2022-10-22T02:58:49.604Z,15.88
2022-10-22T02:59:01.534Z,15.87
2022-10-22T02:59:13.452Z,15.86
2022-10-22T02:59:25.343Z,15.87
2022-10-22T02:59:37.369Z,15.86
2022-10-22T02:59:49.235Z,15.86
2022-10-22T03:00:01.102Z,15.87
2022-10-22T03:00:13.952Z,15.87
2022-10-22T03:00:25.901Z,15.87
2022-10-22T03:00:37.826Z,15.85
2022-10-22T03:00:49.820Z,15.86
2022-10-22T03:01:01.854Z,15.84
2022-10-22T03:01:16.083Z,15.84
2022-10-22T03:01:28.231Z,15.81
2022-10-22T03:01:40.162Z,15.81
2022-10-22T03:01:52.015Z,15.82
2022-10-22T03:02:04.168Z,15.82
2022-10-22T03:02:16.485Z,15.84
2022-10-22T03:02:28.427Z,15.86
2022-10-22T03:02:40.483Z,15.87
2022-10-22T03:02:52.378Z,15.88
2022-10-22T03:03:04.261Z,15.89
2022-10-22T03:03:16.257Z,15.91
2022-10-22T03:03:28.181Z,15.93
2022-10-22T03:03:40.057Z,15.94
2022-10-22T03:03:51.972Z,15.95
2022-10-22T03:04:04.765Z,15.97
2022-10-22T03:04:16.708Z,15.97
2022-10-22T03:04:28.714Z,15.96
2022-10-22T03:04:40.612Z,15.96
2022-10-22T03:04:52.547Z,15.96
2022-10-22T03:05:05.476Z,15.95
2022-10-22T03:05:17.425Z,15.95
2022-10-22T03:05:29.284Z,15.93
2022-10-22T03:05:41.228Z,15.91
2022-10-22T03:05:53.112Z,15.92
2022-10-22T03:06:05.173Z,15.92
2022-10-22T03:06:17.974Z,15.94
2022-10-22T03:06:29.887Z,15.95
2022-10-22T03:06:44.035Z,15.95
2022-10-22T03:06:55.989Z,15.93
2022-10-22T03:07:08.034Z,15.94
2022-10-22T03:07:19.928Z,15.95
2022-10-22T03:07:31.887Z,15.94
2022-10-22T03:07:43.895Z,15.94
2022-10-22T03:07:55.880Z,15.95
2022-10-22T03:08:07.762Z,15.94
2022-10-22T03:08:19.654Z,15.94
2022-10-22T03:08:31.654Z,15.94
2022-10-22T03:08:43.694Z,15.95
2022-10-22T03:08:55.647Z,15.96
2022-10-22T03:09:07.620Z,15.96
2022-10-22T03:09:21.435Z,15.94
2022-10-22T03:09:36.026Z,15.95
2022-10-22T03:09:47.983Z,15.94
2022-10-22T03:09:59.903Z,15.93
2022-10-22T03:10:11.878Z,15.92
2022-10-22T03:10:23.792Z,15.94
2022-10-22T03:10:35.748Z,15.96
2022-10-22T03:10:47.669Z,15.95
2022-10-22T03:10:59.586Z,15.94
2022-10-22T03:11:11.574Z,15.93
2022-10-22T03:11:23.459Z,15.93
2022-10-22T03:11:35.455Z,15.93
2022-10-22T03:11:47.404Z,15.94
2022-10-22T03:11:59.603Z,15.94
2022-10-22T03:12:11.459Z,15.92
2022-10-22T03:12:23.333Z,15.89
2022-10-22T03:12:35.312Z,15.91
2022-10-22T03:12:48.190Z,15.91
2022-10-22T03:13:00.744Z,15.88
2022-10-22T03:13:12.691Z,15.89
2022-10-22T03:13:24.614Z,15.88
2022-10-22T03:13:36.802Z,15.88
2022-10-22T03:13:48.709Z,15.87
2022-10-22T03:14:00.609Z,15.82
2022-10-22T03:14:12.882Z,15.84
2022-10-22T03:14:24.813Z,15.86
2022-10-22T03:14:36.738Z,15.86
2022-10-22T03:14:48.609Z,15.88
2022-10-22T03:15:00.576Z,15.89
2022-10-22T03:15:12.472Z,15.88
2022-10-22T03:15:24.521Z,15.87
2022-10-22T03:15:36.404Z,15.86
2022-10-22T03:15:49.992Z,15.88
2022-10-22T03:16:02.172Z,15.86
2022-10-22T03:16:14.048Z,15.86
2022-10-22T03:16:25.999Z,15.85
2022-10-22T03:16:37.881Z,15.86
2022-10-22T03:16:49.749Z,15.83